Ana Sayfa
METAR-TAF:

METAR-TAF

Havaalanları :

Pekin, Çin

Pekin Başkent Uluslararası Havalimanı

Enlem: 39-56N, Boylam: 116-17E, yükseklik: 55 m

Güncel hava durumu gözlemi

Rapor saat 20:00 UTC de 11 dakika önce yapıldı.
Rüzgar doğudan 2 kt
Sıcaklık -8°C
Nem 73%
Basınç 1028 hPa
Görüş mesafesi 10 km veya daha fazla
1500 m altında bulut yok ve kümülonimbus yok

METAR: ZBAA 242000Z 09001MPS CAVOK M08/M12 Q1028 NOSIG

Saat: 04:11 (20:11 UTC)

Tahmin

Rapor saat 15:20 UTC de 4 saat ve 51 dakika önce yapıldı.
Ayın 24'si saat 18 UTC'den ayın 25'si saat 18 UTC'ye kadar geçerli Tahmin
Rüzgar güneydan 8 kt
Görüş mesafesi 10 km veya daha fazla
1500 m altında bulut yok ve kümülonimbus yok

TAF: ZBAA 241520Z 2418/2518 18004MPS CAVOK TX06/2507Z TNM06/21Z

4.000'den fazla havaalanı için hava durumu gözlemleri ve tahminleri (METAR ve TAF raporları).

Kullanılabilir istasyonlar harita üzerinde sarı ve kırmızı noktalarla gösterilir.

İstasyonun adını görmek için fareyi noktanın üzerinde gezdirin.

Sonrasında hava gözlem ve tahminlerini görmek için tıklayın.

Haritayı değiştirmek için: yaklaştırmak için siyah artı işaretli yeşil düğmeye ve uzaklaştırmak için de eksi işaretli düğmeye hızla tıklayın; bitişik haritalar için yeşil okları kullanın.


METAR-TAF: